createdAt,value
2022-09-15T00:00:46.072Z,97.71
2022-09-15T00:01:46.116Z,97.80
2022-09-15T00:02:46.162Z,97.80
2022-09-15T00:03:46.032Z,97.80
2022-09-15T00:04:46.003Z,97.80
2022-09-15T00:05:46.003Z,97.91
2022-09-15T00:06:45.990Z,97.80
2022-09-15T00:07:46.004Z,97.80
2022-09-15T00:08:45.967Z,97.80
2022-09-15T00:09:45.963Z,97.80
2022-09-15T00:10:45.992Z,97.80
2022-09-15T00:11:45.932Z,97.91
2022-09-15T00:12:45.922Z,97.80
2022-09-15T00:13:45.933Z,97.80
2022-09-15T00:14:45.902Z,97.80
2022-09-15T00:15:45.902Z,97.80
2022-09-15T00:16:45.926Z,97.80
2022-09-15T00:17:45.882Z,97.80
2022-09-15T00:18:45.853Z,97.80
2022-09-15T00:19:45.852Z,97.80
2022-09-15T00:20:45.862Z,97.80
2022-09-15T00:21:45.836Z,97.80
2022-09-15T00:22:45.856Z,97.80
2022-09-15T00:23:45.810Z,97.80
2022-09-15T00:24:45.802Z,97.80
2022-09-15T00:25:45.828Z,97.71
2022-09-15T00:26:45.773Z,97.80
2022-09-15T00:27:45.793Z,97.71
2022-09-15T00:28:45.785Z,97.71
2022-09-15T00:29:45.753Z,97.71
2022-09-15T00:30:45.771Z,97.80
2022-09-15T00:31:45.745Z,97.80
2022-09-15T00:32:45.712Z,97.80
2022-09-15T00:33:45.741Z,97.80
2022-09-15T00:34:45.693Z,97.80
2022-09-15T00:35:45.684Z,97.71
2022-09-15T00:36:45.672Z,97.71
2022-09-15T00:37:45.663Z,97.71
2022-09-15T00:38:45.683Z,97.71
2022-09-15T00:39:45.677Z,97.71
2022-09-15T00:40:45.623Z,97.71
2022-09-15T00:41:45.641Z,97.71
2022-09-15T00:42:45.605Z,97.71
2022-09-15T00:43:45.593Z,97.71
2022-09-15T00:44:45.634Z,97.71
2022-09-15T00:45:45.642Z,97.71
2022-09-15T00:46:54.796Z,97.71
2022-09-15T00:47:46.555Z,97.71
2022-09-15T00:48:45.585Z,97.60
2022-09-15T00:49:45.540Z,97.60
2022-09-15T00:50:45.522Z,97.60
2022-09-15T00:51:45.540Z,97.60
2022-09-15T00:52:45.499Z,97.60
2022-09-15T00:53:45.485Z,97.60
2022-09-15T00:54:45.475Z,97.60
2022-09-15T00:55:45.472Z,97.60
2022-09-15T00:56:45.453Z,97.60
2022-09-15T00:57:45.492Z,97.60
2022-09-15T00:58:45.433Z,97.60
2022-09-15T00:59:45.433Z,97.50
2022-09-15T01:00:45.462Z,97.50
2022-09-15T01:01:45.484Z,97.40
2022-09-15T01:02:45.431Z,97.40
2022-09-15T01:03:45.412Z,97.30
2022-09-15T01:04:45.362Z,97.40
2022-09-15T01:05:45.362Z,97.30
2022-09-15T01:06:45.382Z,97.30
2022-09-15T01:07:45.334Z,97.30
2022-09-15T01:08:45.323Z,97.34
2022-09-15T01:09:45.319Z,97.14
2022-09-15T01:10:45.303Z,97.14
2022-09-15T01:11:45.300Z,97.14
2022-09-15T01:12:45.331Z,97.14
2022-09-15T01:13:45.272Z,97.14
2022-09-15T01:14:45.252Z,97.14
2022-09-15T01:15:45.253Z,97.24
2022-09-15T01:16:45.296Z,97.24
2022-09-15T01:17:45.233Z,97.24
2022-09-15T01:18:45.254Z,97.34
2022-09-15T01:19:45.212Z,97.34
2022-09-15T01:20:45.192Z,97.34
2022-09-15T01:21:45.184Z,97.34
2022-09-15T01:22:45.170Z,97.44
2022-09-15T01:23:45.205Z,97.44
2022-09-15T01:24:45.181Z,97.44
2022-09-15T01:25:45.164Z,97.44
2022-09-15T01:26:45.121Z,97.44
2022-09-15T01:27:45.112Z,97.44
2022-09-15T01:28:45.140Z,97.44
2022-09-15T01:29:45.099Z,97.44
2022-09-15T01:30:45.081Z,97.44
2022-09-15T01:31:45.083Z,97.34
2022-09-15T01:32:45.062Z,97.34
2022-09-15T01:33:45.052Z,97.34
2022-09-15T01:34:45.064Z,97.34
2022-09-15T01:35:45.032Z,97.29
2022-09-15T01:36:45.031Z,97.29
2022-09-15T01:37:45.010Z,97.19
2022-09-15T01:38:45.013Z,97.19
2022-09-15T01:39:45.031Z,97.08
2022-09-15T01:40:45.003Z,97.08
2022-09-15T01:41:44.961Z,96.98
2022-09-15T01:42:44.953Z,96.88
2022-09-15T01:43:44.944Z,96.88
2022-09-15T01:44:44.939Z,96.78
2022-09-15T01:45:44.998Z,96.78
2022-09-15T01:46:44.932Z,96.68
2022-09-15T01:47:44.896Z,96.68
2022-09-15T01:48:44.893Z,96.68
2022-09-15T01:49:44.882Z,96.68
2022-09-15T01:50:44.893Z,96.58
2022-09-15T01:51:44.859Z,96.58
2022-09-15T01:52:44.858Z,96.47
2022-09-15T01:53:44.930Z,96.47
2022-09-15T01:54:44.822Z,96.47
2022-09-15T01:55:44.813Z,96.47
2022-09-15T01:56:44.803Z,96.47
2022-09-15T01:57:44.808Z,96.52
2022-09-15T01:58:44.782Z,96.52
2022-09-15T01:59:44.852Z,96.42
2022-09-15T02:00:44.811Z,96.42
2022-09-15T02:01:44.822Z,96.42
2022-09-15T02:02:44.755Z,96.42
2022-09-15T02:03:44.738Z,96.31
2022-09-15T02:04:44.712Z,96.31
2022-09-15T02:05:44.751Z,96.31
2022-09-15T02:06:44.692Z,96.31
2022-09-15T02:07:44.682Z,96.42
2022-09-15T02:08:44.694Z,96.42
2022-09-15T02:09:44.661Z,96.52
2022-09-15T02:10:44.652Z,96.62
2022-09-15T02:11:44.732Z,96.72
2022-09-15T02:12:44.645Z,96.83
2022-09-15T02:13:44.621Z,96.92
2022-09-15T02:14:44.610Z,97.03
2022-09-15T02:15:44.591Z,97.03
2022-09-15T02:16:44.626Z,97.13
2022-09-15T02:17:44.603Z,97.23
2022-09-15T02:18:44.562Z,97.23
2022-09-15T02:19:45.499Z,97.33
2022-09-15T02:20:44.542Z,97.44
2022-09-15T02:21:44.532Z,97.53
2022-09-15T02:22:44.564Z,97.53
2022-09-15T02:23:44.574Z,97.53
2022-09-15T02:24:44.564Z,97.60
2022-09-15T02:25:44.482Z,97.60
2022-09-15T02:26:44.480Z,97.60
2022-09-15T02:27:44.462Z,97.60
2022-09-15T02:28:44.461Z,97.60
2022-09-15T02:29:44.442Z,97.60
2022-09-15T02:30:44.462Z,97.60
2022-09-15T02:31:44.529Z,97.60
2022-09-15T02:32:44.421Z,97.60
2022-09-15T02:33:44.400Z,97.60
2022-09-15T02:34:44.392Z,97.60
2022-09-15T02:35:44.403Z,97.49
2022-09-15T02:36:44.373Z,97.49
2022-09-15T02:37:44.361Z,97.49
2022-09-15T02:38:44.420Z,97.49
2022-09-15T02:39:44.423Z,97.49
2022-09-15T02:40:44.356Z,97.49
2022-09-15T02:41:44.321Z,97.39
2022-09-15T02:42:44.339Z,97.39
2022-09-15T02:43:44.292Z,97.39
2022-09-15T02:44:44.292Z,97.39
2022-09-15T02:45:44.329Z,97.49
2022-09-15T02:46:44.261Z,97.49
2022-09-15T02:47:44.252Z,97.60
2022-09-15T02:48:44.281Z,97.69
2022-09-15T02:49:44.231Z,97.80
2022-09-15T02:50:45.290Z,97.89
2022-09-15T02:51:44.213Z,98.00
2022-09-15T02:52:44.201Z,98.10
2022-09-15T02:53:44.307Z,98.30
2022-09-15T02:54:44.180Z,98.30
2022-09-15T02:55:44.161Z,98.41
2022-09-15T02:56:44.162Z,98.41
2022-09-15T02:57:44.141Z,98.50
2022-09-15T02:58:44.135Z,98.50
2022-09-15T02:59:44.152Z,98.61
2022-09-15T03:00:44.174Z,98.61
2022-09-15T03:01:44.165Z,98.61
2022-09-15T03:02:44.094Z,98.61
2022-09-15T03:03:44.073Z,98.71
2022-09-15T03:04:44.071Z,98.71
2022-09-15T03:05:44.081Z,98.71
2022-09-15T03:06:44.060Z,98.81
2022-09-15T03:07:44.043Z,98.77
2022-09-15T03:08:44.031Z,98.86
2022-09-15T03:09:44.041Z,98.86
2022-09-15T03:10:44.043Z,98.86
2022-09-15T03:11:44.042Z,98.97
2022-09-15T03:12:44.001Z,98.97
2022-09-15T03:13:43.971Z,99.07
2022-09-15T03:14:43.962Z,99.07
2022-09-15T03:15:43.952Z,99.07
2022-09-15T03:16:43.957Z,99.07
2022-09-15T03:17:43.961Z,99.07
2022-09-15T03:18:43.922Z,99.07
2022-09-15T03:19:43.908Z,99.17
2022-09-15T03:20:43.901Z,99.17
2022-09-15T03:21:43.890Z,99.17
2022-09-15T03:22:43.881Z,99.17
2022-09-15T03:23:44.001Z,99.17
2022-09-15T03:24:43.851Z,99.17
2022-09-15T03:25:43.844Z,99.17
2022-09-15T03:26:43.831Z,99.17
2022-09-15T03:27:43.823Z,99.17
2022-09-15T03:28:43.811Z,99.27
2022-09-15T03:29:43.850Z,99.27
2022-09-15T03:30:43.824Z,99.27
2022-09-15T03:31:43.892Z,99.27
2022-09-15T03:32:43.785Z,99.27
2022-09-15T03:33:43.759Z,99.27
2022-09-15T03:34:43.747Z,99.27
2022-09-15T03:35:43.762Z,99.17
2022-09-15T03:36:43.731Z,99.17
2022-09-15T03:37:43.744Z,99.17
2022-09-15T03:38:43.706Z,99.17
2022-09-15T03:39:43.701Z,99.07
2022-09-15T03:40:43.681Z,99.07
2022-09-15T03:41:43.671Z,99.07
2022-09-15T03:42:43.692Z,98.97
2022-09-15T03:43:43.651Z,98.97
2022-09-15T03:44:43.662Z,98.97
2022-09-15T03:45:43.650Z,98.86
2022-09-15T03:46:43.641Z,98.82
2022-09-15T03:47:43.630Z,98.82
2022-09-15T03:48:43.600Z,98.86
2022-09-15T03:49:43.580Z,98.86
2022-09-15T03:50:43.579Z,98.86
2022-09-15T03:51:43.570Z,98.82
2022-09-15T03:52:43.580Z,98.82
2022-09-15T03:53:43.570Z,98.82
2022-09-15T03:54:43.569Z,98.82
2022-09-15T03:55:43.520Z,98.82
2022-09-15T03:56:43.510Z,98.82
2022-09-15T03:57:43.490Z,98.82
2022-09-15T03:58:43.495Z,98.82
2022-09-15T03:59:43.472Z,98.82
2022-09-15T04:00:43.618Z,98.82
2022-09-15T04:01:43.541Z,98.82
2022-09-15T04:02:43.449Z,98.82
2022-09-15T04:03:47.566Z,98.82
2022-09-15T04:04:44.460Z,98.82
2022-09-15T04:05:43.410Z,98.92
2022-09-15T04:06:43.406Z,98.82
2022-09-15T04:07:43.390Z,98.82
2022-09-15T04:08:43.421Z,98.82
2022-09-15T04:09:43.383Z,98.82
2022-09-15T04:10:43.391Z,98.82
2022-09-15T04:11:43.349Z,98.82
2022-09-15T04:12:43.340Z,98.82
2022-09-15T04:13:43.336Z,98.82
2022-09-15T04:14:43.350Z,98.72
2022-09-15T04:15:43.309Z,98.72
2022-09-15T04:16:43.376Z,98.72
2022-09-15T04:17:43.281Z,98.62
2022-09-15T04:18:43.304Z,98.62
2022-09-15T04:19:43.351Z,98.52
2022-09-15T04:21:52.774Z,98.52
2022-09-15T04:22:52.734Z,98.52
2022-09-15T04:23:52.801Z,98.52
2022-09-15T04:24:52.714Z,98.52
2022-09-15T04:25:52.705Z,98.41
2022-09-15T04:26:52.785Z,98.41
2022-09-15T04:27:52.734Z,98.41
2022-09-15T04:28:52.718Z,98.41
2022-09-15T04:29:52.655Z,98.41
2022-09-15T04:30:52.651Z,98.41
2022-09-15T04:31:52.695Z,98.41
2022-09-15T04:32:52.636Z,98.41
2022-09-15T04:33:52.649Z,98.32
2022-09-15T04:34:52.607Z,98.32
2022-09-15T04:35:52.595Z,98.32
2022-09-15T04:36:52.628Z,98.32
2022-09-15T04:37:52.603Z,98.21
2022-09-15T04:38:52.759Z,98.21
2022-09-15T04:39:52.651Z,98.11
2022-09-15T04:40:52.542Z,98.11
2022-09-15T04:41:52.525Z,98.07
2022-09-15T04:42:52.656Z,98.01
2022-09-15T04:43:52.640Z,98.01
2022-09-15T04:44:52.519Z,97.96
2022-09-15T04:45:52.484Z,97.96
2022-09-15T04:46:52.617Z,97.86
2022-09-15T04:47:52.465Z,97.86
2022-09-15T04:48:52.465Z,97.86
2022-09-15T04:49:52.445Z,97.86
2022-09-15T04:50:52.435Z,97.86
2022-09-15T04:51:52.424Z,97.76
2022-09-15T04:52:52.445Z,97.66
2022-09-15T04:53:52.526Z,97.66
2022-09-15T04:54:52.423Z,97.66
2022-09-15T04:55:52.385Z,97.56
2022-09-15T04:56:52.373Z,97.56
2022-09-15T04:57:52.364Z,97.56
2022-09-15T04:58:52.404Z,97.56
2022-09-15T04:59:52.372Z,97.56
2022-09-15T05:00:52.402Z,97.56
2022-09-15T05:01:52.363Z,97.56
2022-09-15T05:02:52.302Z,97.66
2022-09-15T05:03:52.293Z,97.66
2022-09-15T05:04:52.332Z,97.66
2022-09-15T05:05:52.275Z,97.76
2022-09-15T05:06:52.259Z,97.76
2022-09-15T05:07:52.250Z,97.76
2022-09-15T05:08:52.336Z,97.86
2022-09-15T05:09:52.231Z,97.86
2022-09-15T05:10:52.247Z,97.86
2022-09-15T05:11:52.204Z,97.86
2022-09-15T05:12:52.195Z,97.86
2022-09-15T05:13:52.188Z,97.86
2022-09-15T05:14:52.205Z,97.86
2022-09-15T05:15:52.214Z,97.96
2022-09-15T05:16:52.154Z,97.96
2022-09-15T05:17:52.134Z,97.96
2022-09-15T05:18:52.135Z,98.07
2022-09-15T05:19:52.142Z,98.07
2022-09-15T05:20:52.114Z,98.16
2022-09-15T05:21:52.124Z,98.16
2022-09-15T05:22:52.094Z,98.07
2022-09-15T05:23:52.333Z,98.07
2022-09-15T05:24:52.074Z,98.07
2022-09-15T05:25:52.054Z,98.07
2022-09-15T05:26:52.068Z,98.07
2022-09-15T05:27:52.034Z,98.16
2022-09-15T05:28:52.023Z,98.21
2022-09-15T05:30:04.446Z,98.21
2022-09-15T05:30:53.036Z,98.21
2022-09-15T05:31:52.013Z,98.32
2022-09-15T05:32:52.033Z,98.32
2022-09-15T05:33:51.984Z,98.32
2022-09-15T05:34:51.954Z,98.32
2022-09-15T05:35:51.944Z,98.41
2022-09-15T05:36:52.023Z,98.41
2022-09-15T05:37:51.916Z,98.41
2022-09-15T05:38:52.097Z,98.41
2022-09-15T05:39:51.923Z,98.52
2022-09-15T05:40:51.895Z,98.52
2022-09-15T05:41:51.903Z,98.41
2022-09-15T05:42:51.905Z,98.52
2022-09-15T05:43:51.894Z,98.52
2022-09-15T05:44:51.844Z,98.52
2022-09-15T05:45:51.834Z,98.52
2022-09-15T05:46:51.867Z,98.52
2022-09-15T05:47:51.805Z,98.62
2022-09-15T05:48:51.831Z,98.57
2022-09-15T05:49:51.824Z,98.62
2022-09-15T05:50:51.774Z,98.62
2022-09-15T05:51:51.774Z,98.62
2022-09-15T05:52:51.762Z,98.57
2022-09-15T05:53:51.905Z,98.57
2022-09-15T05:54:54.706Z,98.57
2022-09-15T05:55:52.714Z,98.57
2022-09-15T05:56:51.716Z,98.57
2022-09-15T05:57:51.726Z,98.57
2022-09-15T05:58:51.704Z,98.57
2022-09-15T05:59:51.674Z,98.57
2022-09-15T06:00:51.672Z,98.57
2022-09-15T06:01:51.720Z,98.57
2022-09-15T06:02:51.738Z,98.57
2022-09-15T06:03:51.662Z,98.57
2022-09-15T06:04:51.630Z,98.57
2022-09-15T06:05:51.613Z,98.57
2022-09-15T06:06:51.603Z,98.57
2022-09-15T06:07:51.594Z,98.68
2022-09-15T06:08:55.665Z,98.68
2022-09-15T06:09:52.614Z,98.68
2022-09-15T06:10:51.553Z,98.77
2022-09-15T06:11:51.574Z,98.68
2022-09-15T06:12:51.534Z,98.68
2022-09-15T06:13:51.539Z,98.68
2022-09-15T06:14:51.561Z,98.68
2022-09-15T06:15:51.586Z,98.68
2022-09-15T06:16:51.602Z,98.68
2022-09-15T06:17:51.483Z,98.77
2022-09-15T06:18:51.688Z,98.77
2022-09-15T06:19:51.463Z,98.77
2022-09-15T06:20:51.453Z,98.88
2022-09-15T06:21:51.434Z,98.88
2022-09-15T06:22:51.453Z,98.88
2022-09-15T06:23:51.416Z,98.97
2022-09-15T06:24:51.413Z,98.97
2022-09-15T06:25:51.394Z,98.97
2022-09-15T06:26:53.164Z,98.97
2022-09-15T06:27:51.395Z,98.97
2022-09-15T06:28:51.364Z,98.97
2022-09-15T06:29:51.354Z,98.97
2022-09-15T06:30:51.345Z,99.08
2022-09-15T06:31:51.416Z,99.08
2022-09-15T06:32:51.338Z,99.08
2022-09-15T06:33:51.592Z,99.08
2022-09-15T06:34:51.313Z,99.08
2022-09-15T06:35:51.293Z,98.88
2022-09-15T06:36:51.274Z,98.77
2022-09-15T06:37:51.263Z,98.77
2022-09-15T06:38:51.264Z,98.77
2022-09-15T06:39:51.443Z,98.77
2022-09-15T06:40:51.234Z,98.77
2022-09-15T06:42:02.296Z,98.77
2022-09-15T06:42:52.222Z,98.68
2022-09-15T06:43:57.023Z,98.68
2022-09-15T06:44:51.193Z,98.57
2022-09-15T06:45:51.292Z,98.57
2022-09-15T06:46:51.164Z,98.57
2022-09-15T06:48:07.407Z,98.57
2022-09-15T06:48:52.156Z,98.57
2022-09-15T06:49:51.153Z,98.57
2022-09-15T06:50:51.123Z,98.47
2022-09-15T06:51:51.103Z,98.47
2022-09-15T06:52:51.103Z,98.37
2022-09-15T06:53:51.126Z,98.27
2022-09-15T06:54:51.085Z,98.27
2022-09-15T06:55:51.075Z,98.16
2022-09-15T06:56:51.094Z,98.07
2022-09-15T06:57:51.130Z,98.07
2022-09-15T06:58:51.135Z,98.07
2022-09-15T06:59:51.058Z,98.07
2022-09-15T07:00:51.033Z,98.07
2022-09-15T07:01:51.073Z,98.07
2022-09-15T07:02:51.064Z,97.96
2022-09-15T07:03:50.976Z,97.96
2022-09-15T07:04:50.974Z,97.96
2022-09-15T07:05:50.954Z,97.96
2022-09-15T07:06:50.983Z,97.92
2022-09-15T07:07:50.936Z,97.81
2022-09-15T07:08:51.085Z,97.81
2022-09-15T07:09:50.916Z,97.61
2022-09-15T07:10:50.913Z,97.51
2022-09-15T07:11:50.891Z,97.31
2022-09-15T07:12:50.933Z,97.31
2022-09-15T07:13:50.874Z,97.20
2022-09-15T07:14:50.901Z,97.00
2022-09-15T07:15:50.965Z,97.00
2022-09-15T07:16:50.920Z,97.00
2022-09-15T07:17:50.823Z,97.00
2022-09-15T07:18:50.995Z,96.90
2022-09-15T07:19:50.811Z,96.90
2022-09-15T07:20:50.794Z,96.90
2022-09-15T07:21:51.033Z,96.80
2022-09-15T07:22:50.772Z,96.80
2022-09-15T07:23:50.764Z,96.90
2022-09-15T07:24:50.766Z,96.90
2022-09-15T07:25:50.743Z,96.75
2022-09-15T07:26:51.023Z,96.66
2022-09-15T07:27:50.723Z,96.55
2022-09-15T07:28:50.704Z,96.25
2022-09-15T07:29:50.703Z,96.15
2022-09-15T07:30:50.696Z,95.94
2022-09-15T07:31:51.135Z,95.94
2022-09-15T07:32:50.663Z,95.84
2022-09-15T07:33:50.701Z,95.84
2022-09-15T07:34:50.653Z,95.84
2022-09-15T07:35:50.668Z,95.64
2022-09-15T07:36:50.623Z,95.54
2022-09-15T07:37:50.602Z,95.34
2022-09-15T07:38:50.600Z,95.23
2022-09-15T07:39:50.646Z,94.93
2022-09-15T07:40:50.573Z,94.93
2022-09-15T07:41:50.582Z,94.98
2022-09-15T07:42:50.564Z,94.98
2022-09-15T07:43:50.546Z,94.98
2022-09-15T07:44:50.582Z,94.48
2022-09-15T07:45:50.584Z,94.27
2022-09-15T07:46:50.543Z,94.18
2022-09-15T07:47:50.493Z,93.97
2022-09-15T07:48:50.493Z,93.87
2022-09-15T07:49:50.484Z,93.77
2022-09-15T07:50:50.509Z,93.87
2022-09-15T07:51:50.532Z,93.57
2022-09-15T07:52:50.442Z,92.76
2022-09-15T07:53:50.440Z,92.55
2022-09-15T07:54:50.452Z,92.45
2022-09-15T07:55:50.416Z,92.14
2022-09-15T07:56:50.402Z,91.94
2022-09-15T07:57:50.391Z,92.00
2022-09-15T07:58:50.390Z,92.10
2022-09-15T07:59:50.413Z,92.10
2022-09-15T08:00:50.392Z,92.31
2022-09-15T08:01:50.394Z,92.61
2022-09-15T08:02:50.341Z,92.61
2022-09-15T08:03:50.330Z,92.26
2022-09-15T08:04:50.354Z,91.70
2022-09-15T08:05:50.334Z,91.60
2022-09-15T08:06:50.344Z,91.55
2022-09-15T08:07:50.295Z,91.55
2022-09-15T08:08:50.286Z,91.46
2022-09-15T08:09:50.271Z,91.55
2022-09-15T08:10:50.271Z,91.66
2022-09-15T08:11:50.289Z,91.66
2022-09-15T08:12:50.233Z,91.75
2022-09-15T08:13:50.273Z,91.55
2022-09-15T08:14:50.221Z,90.84
2022-09-15T08:15:50.242Z,90.44
2022-09-15T08:16:50.233Z,90.14
2022-09-15T08:17:50.250Z,90.24
2022-09-15T08:18:50.173Z,90.03
2022-09-15T08:19:50.153Z,89.59
2022-09-15T08:20:50.142Z,89.39
2022-09-15T08:21:50.134Z,88.37
2022-09-15T08:22:50.153Z,87.40
2022-09-15T08:23:50.114Z,87.81
2022-09-15T08:24:50.093Z,87.87
2022-09-15T08:25:50.092Z,87.30
2022-09-15T08:26:50.082Z,87.26
2022-09-15T08:27:50.093Z,87.56
2022-09-15T08:28:51.890Z,87.97
2022-09-15T08:29:50.090Z,88.27
2022-09-15T08:30:50.061Z,88.37
2022-09-15T08:31:50.143Z,88.27
2022-09-15T08:32:50.023Z,88.27
2022-09-15T08:33:50.011Z,88.27
2022-09-15T08:34:50.004Z,88.13
2022-09-15T08:35:49.992Z,88.13
2022-09-15T08:36:50.013Z,87.82
2022-09-15T08:37:49.964Z,87.52
2022-09-15T08:38:49.980Z,86.82
2022-09-15T08:39:49.960Z,86.61
2022-09-15T08:40:49.928Z,86.41
2022-09-15T08:41:49.978Z,86.71
2022-09-15T08:42:49.903Z,85.70
2022-09-15T08:43:49.894Z,83.88
2022-09-15T08:44:49.883Z,84.08
2022-09-15T08:45:49.883Z,84.89
2022-09-15T08:46:49.893Z,85.19
2022-09-15T08:47:49.891Z,84.89
2022-09-15T08:48:49.835Z,84.39
2022-09-15T08:49:52.248Z,84.28
2022-09-15T08:50:49.824Z,84.59
2022-09-15T08:51:49.843Z,84.89
2022-09-15T08:52:49.794Z,84.59
2022-09-15T08:53:49.784Z,84.14
2022-09-15T08:54:49.829Z,83.74
2022-09-15T08:55:49.795Z,84.04
2022-09-15T08:56:49.774Z,84.34
2022-09-15T08:57:49.750Z,84.45
2022-09-15T08:58:49.763Z,84.14
2022-09-15T08:59:49.715Z,83.44
2022-09-15T09:00:49.746Z,83.94
2022-09-15T09:01:49.867Z,83.84
2022-09-15T09:02:49.787Z,82.12
2022-09-15T09:03:49.693Z,82.12
2022-09-15T09:04:49.834Z,82.42
2022-09-15T09:05:49.662Z,81.41
2022-09-15T09:06:49.643Z,80.60
2022-09-15T09:07:49.634Z,80.30
2022-09-15T09:08:49.622Z,79.90
2022-09-15T09:09:49.613Z,80.40
2022-09-15T09:10:49.656Z,81.21
2022-09-15T09:11:49.604Z,79.29
2022-09-15T09:12:49.574Z,79.19
2022-09-15T09:13:49.573Z,79.55
2022-09-15T09:14:49.553Z,79.25
2022-09-15T09:15:49.634Z,79.46
2022-09-15T09:16:49.675Z,78.55
2022-09-15T09:17:49.563Z,78.55
2022-09-15T09:18:49.514Z,78.34
2022-09-15T09:19:49.503Z,78.64
2022-09-15T09:20:49.490Z,78.04
2022-09-15T09:21:49.504Z,76.62
2022-09-15T09:22:49.464Z,77.03
2022-09-15T09:23:49.487Z,78.24
2022-09-15T09:24:49.453Z,77.73
2022-09-15T09:25:49.455Z,77.23
2022-09-15T09:26:49.426Z,76.93
2022-09-15T09:27:49.463Z,77.33
2022-09-15T09:28:49.401Z,77.84
2022-09-15T09:29:49.412Z,76.22
2022-09-15T09:30:49.482Z,77.13
2022-09-15T09:31:49.373Z,76.72
2022-09-15T09:32:49.390Z,77.03
2022-09-15T09:33:49.420Z,76.12
2022-09-15T09:34:49.363Z,76.82
2022-09-15T09:35:49.355Z,77.43
2022-09-15T09:36:49.313Z,77.50
2022-09-15T09:37:49.442Z,77.60
2022-09-15T09:38:49.293Z,77.50
2022-09-15T09:39:49.342Z,76.48
2022-09-15T09:40:49.274Z,76.79
2022-09-15T09:41:49.264Z,76.89
2022-09-15T09:42:49.256Z,77.19
2022-09-15T09:43:49.268Z,77.19
2022-09-15T09:44:49.233Z,76.99
2022-09-15T09:45:49.224Z,77.19
2022-09-15T09:46:49.235Z,77.70
2022-09-15T09:47:49.219Z,77.29
2022-09-15T09:48:49.183Z,76.69
2022-09-15T09:49:49.214Z,73.55
2022-09-15T09:50:49.162Z,74.70
2022-09-15T09:51:49.191Z,76.18
2022-09-15T09:52:49.175Z,75.81
2022-09-15T09:53:49.177Z,75.68
2022-09-15T09:54:49.115Z,75.68
2022-09-15T09:55:49.122Z,76.08
2022-09-15T09:56:49.110Z,76.59
2022-09-15T09:57:49.123Z,76.99
2022-09-15T09:58:49.101Z,77.19
2022-09-15T09:59:49.074Z,77.19
2022-09-15T10:00:49.056Z,76.48
2022-09-15T10:01:49.157Z,76.79
2022-09-15T10:02:49.086Z,77.50
2022-09-15T10:03:49.038Z,77.09
2022-09-15T10:04:49.097Z,76.39
2022-09-15T10:05:49.003Z,75.48
2022-09-15T10:06:48.984Z,74.66
2022-09-15T10:07:48.982Z,74.26
2022-09-15T10:08:48.997Z,74.80
2022-09-15T10:09:48.965Z,75.01
2022-09-15T10:10:48.943Z,75.41
2022-09-15T10:11:49.013Z,75.61
2022-09-15T10:12:48.913Z,74.80
2022-09-15T10:13:48.928Z,75.51
2022-09-15T10:14:48.907Z,75.10
2022-09-15T10:15:48.891Z,75.55
2022-09-15T10:16:49.002Z,75.95
2022-09-15T10:17:48.876Z,76.46
2022-09-15T10:18:52.268Z,76.76
2022-09-15T10:19:49.860Z,76.97
2022-09-15T10:20:48.835Z,77.77
2022-09-15T10:21:48.825Z,78.08
2022-09-15T10:22:48.868Z,78.72
2022-09-15T10:23:48.841Z,79.26
2022-09-15T10:24:48.795Z,79.97
2022-09-15T10:25:59.253Z,81.02
2022-09-15T10:26:49.797Z,82.34
2022-09-15T10:27:48.765Z,82.95
2022-09-15T10:28:48.754Z,83.90
2022-09-15T10:29:50.615Z,84.10
2022-09-15T10:30:48.725Z,84.41
2022-09-15T10:31:48.801Z,84.75
2022-09-15T10:32:48.716Z,85.05
2022-09-15T10:33:48.695Z,85.46
2022-09-15T10:34:48.682Z,85.86
2022-09-15T10:35:48.702Z,86.37
2022-09-15T10:36:48.664Z,87.12
2022-09-15T10:37:48.654Z,87.48
2022-09-15T10:38:48.634Z,87.32
2022-09-15T10:39:48.694Z,87.22
2022-09-15T10:40:48.646Z,87.12
2022-09-15T10:41:48.615Z,87.02
2022-09-15T10:42:48.596Z,87.12
2022-09-15T10:43:48.594Z,87.22
2022-09-15T10:44:48.576Z,87.02
2022-09-15T10:45:48.682Z,86.71
2022-09-15T10:46:48.553Z,86.71
2022-09-15T10:47:48.575Z,86.82
2022-09-15T10:48:48.535Z,87.12
2022-09-15T10:49:48.535Z,87.32
2022-09-15T10:50:48.566Z,87.43
2022-09-15T10:51:48.507Z,87.32
2022-09-15T10:52:48.494Z,87.18
2022-09-15T10:53:48.482Z,87.08
2022-09-15T10:54:48.465Z,87.38
2022-09-15T10:55:52.981Z,87.28
2022-09-15T10:56:48.452Z,87.18
2022-09-15T10:57:48.445Z,87.08
2022-09-15T10:58:48.688Z,86.77
2022-09-15T10:59:48.415Z,86.57
2022-09-15T11:00:48.470Z,86.13
2022-09-15T11:01:48.435Z,85.93
2022-09-15T11:02:48.375Z,85.72
2022-09-15T11:03:48.375Z,85.72
2022-09-15T11:04:48.354Z,85.82
2022-09-15T11:05:48.344Z,86.13
2022-09-15T11:06:48.363Z,86.22
2022-09-15T11:07:48.346Z,86.02
2022-09-15T11:08:48.324Z,86.33
2022-09-15T11:09:48.304Z,85.52
2022-09-15T11:10:48.294Z,84.91
2022-09-15T11:11:48.284Z,85.62
2022-09-15T11:12:48.314Z,86.22
2022-09-15T11:13:48.264Z,86.79
2022-09-15T11:14:48.265Z,87.40
2022-09-15T11:15:48.243Z,87.81
2022-09-15T11:16:48.255Z,87.00
2022-09-15T11:17:48.225Z,84.87
2022-09-15T11:18:48.206Z,83.96
2022-09-15T11:19:48.233Z,83.76
2022-09-15T11:20:48.192Z,83.76
2022-09-15T11:21:48.227Z,84.06
2022-09-15T11:22:49.702Z,84.06
2022-09-15T11:23:48.155Z,84.73
2022-09-15T11:24:48.136Z,85.13
2022-09-15T11:25:48.164Z,85.13
2022-09-15T11:26:48.115Z,85.44
2022-09-15T11:27:48.174Z,85.50
2022-09-15T11:28:48.094Z,85.80
2022-09-15T11:29:48.099Z,85.70
2022-09-15T11:30:48.086Z,85.60
2022-09-15T11:31:48.177Z,85.16
2022-09-15T11:32:48.092Z,82.46
2022-09-15T11:33:48.055Z,83.03
2022-09-15T11:34:48.065Z,83.54
2022-09-15T11:35:48.026Z,83.44
2022-09-15T11:36:48.016Z,83.03
2022-09-15T11:37:48.006Z,82.73
2022-09-15T11:38:48.030Z,81.51
2022-09-15T11:39:48.033Z,81.11
2022-09-15T11:40:48.028Z,80.60
2022-09-15T11:41:47.955Z,81.11
2022-09-15T11:42:47.955Z,81.51
2022-09-15T11:43:47.935Z,81.11
2022-09-15T11:44:47.917Z,81.31
2022-09-15T11:45:47.924Z,80.40
2022-09-15T11:46:48.007Z,79.55
2022-09-15T11:47:47.895Z,78.24
2022-09-15T11:48:47.876Z,78.85
2022-09-15T11:49:47.874Z,79.55
2022-09-15T11:50:47.857Z,77.43
2022-09-15T11:51:48.034Z,78.34
2022-09-15T11:52:47.834Z,78.44
2022-09-15T11:53:47.827Z,78.71
2022-09-15T11:54:47.815Z,79.11
2022-09-15T11:55:51.795Z,79.41
2022-09-15T11:56:47.794Z,80.02
2022-09-15T11:57:47.796Z,78.30
2022-09-15T11:58:47.764Z,78.50
2022-09-15T11:59:47.763Z,78.91
2022-09-15T12:00:47.744Z,78.00
2022-09-15T12:01:47.776Z,78.91
2022-09-15T12:02:47.756Z,79.32
2022-09-15T12:03:47.804Z,78.81
2022-09-15T12:04:47.704Z,78.37
2022-09-15T12:05:47.703Z,78.88
2022-09-15T12:06:47.720Z,79.28
2022-09-15T12:07:47.677Z,79.17
2022-09-15T12:08:47.656Z,78.77
2022-09-15T12:09:47.705Z,76.35
2022-09-15T12:10:47.645Z,75.31
2022-09-15T12:11:47.635Z,75.10
2022-09-15T12:12:47.615Z,74.40
2022-09-15T12:13:47.609Z,73.58
2022-09-15T12:14:47.616Z,73.28
2022-09-15T12:15:47.676Z,73.38
2022-09-15T12:16:47.604Z,73.69
2022-09-15T12:17:47.564Z,73.18
2022-09-15T12:18:47.592Z,72.78
2022-09-15T12:19:47.545Z,72.07
2022-09-15T12:20:47.553Z,71.70
2022-09-15T12:21:47.525Z,72.00
2022-09-15T12:22:47.515Z,72.71
2022-09-15T12:23:47.506Z,72.98
2022-09-15T12:24:47.545Z,72.17
2022-09-15T12:25:47.485Z,72.58
2022-09-15T12:26:47.495Z,72.58
2022-09-15T12:27:47.469Z,72.68
2022-09-15T12:28:47.465Z,73.38
2022-09-15T12:29:47.436Z,72.98
2022-09-15T12:30:49.316Z,73.38
2022-09-15T12:31:47.416Z,73.58
2022-09-15T12:32:47.436Z,73.99
2022-09-15T12:33:47.452Z,74.29
2022-09-15T12:34:47.416Z,74.09
2022-09-15T12:35:47.375Z,74.90
2022-09-15T12:36:47.410Z,74.36
2022-09-15T12:37:47.394Z,74.66
2022-09-15T12:38:47.346Z,74.66
2022-09-15T12:39:47.420Z,74.76
2022-09-15T12:40:47.313Z,74.96
2022-09-15T12:41:47.306Z,75.81
2022-09-15T12:42:47.434Z,75.87
2022-09-15T12:43:47.288Z,75.60
2022-09-15T12:44:47.275Z,75.71
2022-09-15T12:45:47.267Z,75.91
2022-09-15T12:46:47.302Z,75.98
2022-09-15T12:47:47.265Z,76.58
2022-09-15T12:48:47.721Z,76.18
2022-09-15T12:49:47.226Z,75.77
2022-09-15T12:50:47.241Z,74.96
2022-09-15T12:51:47.197Z,75.07
2022-09-15T12:52:47.187Z,75.37
2022-09-15T12:53:47.329Z,75.47